Flight Track Log - Related Links

Times and Time Zones

All times are in EDT time to prevent confusion due to time zone crossing. See the N960DL flight status page for this flight to view local times or setup timezone preferences in your user account.

Time Position Orientation Groundspeed Altitude Reporting Facility
EDT Latitude Longitude Course Direction KTS MPH feet Rate Location/Type
Sat 04:38:59 PM 33.6333 -84.3833 121° Southeast 172 198 2,400  Level Atlanta TRACON
Sat 04:39:53 PM 33.6333 -84.3167 90° East 251 289 4,600 2,800 Climbing Atlanta TRACON
Sat 04:40:59 PM 33.6333 -84.2167 90° East 288 331 8,000 2,643 Climbing Atlanta TRACON
Sat 04:41:00 PM 33.7095 -84.0169 118° Southeast  Level FlightAware Approximate
Sat 04:42:00 PM 33.6560 -83.8944 118° Southeast  Level FlightAware Approximate
Sat 04:42:41 PM 33.6022 -84.0339 102° East 332 382 12,000  Level Atlanta Center
Sat 04:43:00 PM 33.6024 -83.7720 118° Southeast  Level FlightAware Approximate
Sat 04:43:41 PM 33.5856 -83.8992 98° East 382 440 13,900  Level Atlanta Center
Sat 04:44:00 PM 33.5434 -83.6534 121° Southeast  Level FlightAware Approximate
Sat 04:44:41 PM 33.5622 -83.7522 101° East 433 498 16,700  Level Atlanta Center
Sat 04:45:41 PM 33.5514 -83.6200 96° East 445 512 18,600 2,050 Climbing Atlanta Center
Sat 04:46:41 PM 33.5717 -83.4653 81° East 460 529 20,800 2,150 Climbing Atlanta Center
Sat 04:47:41 PM 33.5897 -83.3056 82° East 475 547 22,900 1,100 Climbing Atlanta Center
Sat 04:48:41 PM 33.6094 -83.1483 81° East 475 547 23,000 50 Climbing Atlanta Center
Sat 04:49:41 PM 33.6311 -82.9908 81° East 480 552 23,000  Level Atlanta Center
Sat 04:50:41 PM 33.6525 -82.8308 81° East 486 559 23,000  Level Atlanta Center
Sat 04:51:41 PM 33.6719 -82.6733 82° East 480 552 23,000 -850 Level Atlanta Center
Sat 04:52:41 PM 33.6908 -82.5058 82° East 480 552 21,300 -2,156 Descending Atlanta Center
Sat 04:54:28 PM 33.7200 -82.2533 82° East 437 503 17,000 -2,407 Descending Jacksonville Center
Sat 04:55:28 PM 33.7381 -82.1158 81° East 425 489 14,600 -2,400 Descending Jacksonville Center
Sat 04:56:28 PM 33.7539 -81.9758 82° East 425 489 12,200 -1,850 Descending Jacksonville Center
Sat 04:57:28 PM 33.7694 -81.8508 81° East 406 467 10,900 -1,150 Descending Jacksonville Center
Sat 04:58:28 PM 33.7978 -81.7456 72° East 362 417 9,900 -1,300 Descending Jacksonville Center
Sat 04:59:28 PM 33.8303 -81.6500 68° East 325 374 8,300 -1,550 Descending Jacksonville Center
Sat 05:00:28 PM 33.8586 -81.5669 68° East 289 333 6,800 -1,800 Descending Jacksonville Center
Sat 05:01:28 PM 33.8869 -81.4842 68° East 269 310 4,700 -2,000 Descending Jacksonville Center
Sat 05:02:28 PM 33.9133 -81.4061 68° East 257 296 2,800 -1,100 Descending Jacksonville Center
Sat 05:03:28 PM 33.9394 -81.3356 66° East 247 284 2,500 -300 Descending Jacksonville Center
Sat 05:04:28 PM 33.9594 -81.2700 70° East 221 254 2,200 -250 Descending Jacksonville Center
Sat 05:05:28 PM 33.9817 -81.1997 69° East 210 242 2,000 -200 Descending Jacksonville Center

Login

Don't have an account? Register now (free) for customized features, flight alerts, and more!